createdAt,value
2019-05-22T00:01:06.266Z,34.37
2019-05-22T00:03:45.196Z,34.13
2019-05-22T00:06:18.596Z,35.80
2019-05-22T00:08:50.664Z,30.63
2019-05-22T00:11:22.256Z,24.43
2019-05-22T00:13:52.532Z,24.70
2019-05-22T00:16:24.891Z,23.40
2019-05-22T00:18:56.054Z,25.53
2019-05-22T00:21:26.071Z,22.43
2019-05-22T00:23:57.929Z,20.23
2019-05-22T00:26:29.079Z,24.47
2019-05-22T00:29:00.123Z,24.00
2019-05-22T00:31:31.691Z,19.23
2019-05-22T00:34:05.682Z,17.63
2019-05-22T00:36:37.386Z,24.53
2019-05-22T00:39:08.881Z,19.13
2019-05-22T00:41:41.151Z,18.10
2019-05-22T00:44:13.531Z,20.10
2019-05-22T00:46:45.276Z,16.27
2019-05-22T00:49:17.340Z,23.17
2019-05-22T00:51:58.210Z,21.00
2019-05-22T00:54:49.891Z,20.77
2019-05-22T00:57:35.901Z,23.70
2019-05-22T01:00:25.617Z,20.60
2019-05-22T01:03:00.650Z,21.00
2019-05-22T01:05:31.893Z,27.60
2019-05-22T01:08:08.163Z,32.90
2019-05-22T01:10:40.527Z,30.03
2019-05-22T01:13:45.667Z,27.57
2019-05-22T01:16:18.648Z,29.17
2019-05-22T01:18:50.645Z,33.37
2019-05-22T01:21:22.591Z,25.30
2019-05-22T01:23:56.182Z,26.40
2019-05-22T01:26:27.518Z,24.83
2019-05-22T01:28:57.647Z,30.10
2019-05-22T01:31:36.671Z,30.43
2019-05-22T01:34:16.610Z,24.40
2019-05-22T01:36:51.460Z,35.37
2019-05-22T01:39:48.898Z,27.83
2019-05-22T01:42:23.531Z,28.80
2019-05-22T01:45:03.640Z,25.33
2019-05-22T01:47:36.257Z,26.93
2019-05-22T01:50:08.024Z,39.87
2019-05-22T01:52:38.551Z,26.53
2019-05-22T01:55:10.400Z,31.93
2019-05-22T01:57:41.551Z,26.23
2019-05-22T02:00:12.611Z,28.87
2019-05-22T02:02:44.450Z,27.83
2019-05-22T02:05:16.201Z,27.67
2019-05-22T02:07:46.220Z,27.30
2019-05-22T02:10:20.747Z,32.43
2019-05-22T02:12:53.010Z,33.57
2019-05-22T02:15:26.719Z,33.87
2019-05-22T02:17:57.864Z,28.57
2019-05-22T02:20:30.239Z,27.50
2019-05-22T02:23:00.347Z,37.70
2019-05-22T02:25:35.292Z,40.23
2019-05-22T02:28:06.527Z,33.43
2019-05-22T02:30:40.541Z,36.47
2019-05-22T02:33:12.805Z,34.03
2019-05-22T02:35:43.546Z,36.13
2019-05-22T02:38:13.893Z,29.57
2019-05-22T02:40:48.586Z,32.53
2019-05-22T02:43:19.671Z,33.33
2019-05-22T02:45:50.166Z,28.30
2019-05-22T02:48:22.130Z,28.83
2019-05-22T02:50:53.289Z,27.17
2019-05-22T02:53:24.103Z,30.60
2019-05-22T02:56:13.272Z,33.73
2019-05-22T02:58:44.221Z,28.03
2019-05-22T03:01:17.295Z,37.60
2019-05-22T03:03:47.632Z,41.30
2019-05-22T03:06:18.887Z,30.33
2019-05-22T03:09:10.483Z,40.73
2019-05-22T03:11:43.470Z,33.57
2019-05-22T03:14:14.101Z,28.17
2019-05-22T03:16:52.207Z,42.37
2019-05-22T03:19:27.953Z,41.30
2019-05-22T03:21:59.822Z,36.60
2019-05-22T03:24:32.295Z,43.00
2019-05-22T03:27:04.281Z,41.57
2019-05-22T03:29:42.902Z,36.50
2019-05-22T03:32:14.425Z,34.93
2019-05-22T03:34:44.334Z,36.40
2019-05-22T03:37:15.281Z,35.23
2019-05-22T03:39:46.723Z,36.40
2019-05-22T03:42:19.811Z,37.07
2019-05-22T03:44:52.492Z,53.63
2019-05-22T03:47:23.237Z,38.63
2019-05-22T03:49:55.601Z,42.00
2019-05-22T03:52:27.669Z,44.53
2019-05-22T03:54:59.115Z,36.57
2019-05-22T03:57:30.374Z,41.37
2019-05-22T04:00:01.400Z,35.40
2019-05-22T04:02:32.563Z,36.97
2019-05-22T04:05:05.224Z,29.97
2019-05-22T04:07:35.955Z,44.93
2019-05-22T04:10:06.586Z,32.83
2019-05-22T04:12:37.665Z,43.93
2019-05-22T04:15:10.716Z,49.10
2019-05-22T04:17:43.502Z,37.03
2019-05-22T04:20:16.610Z,46.23
2019-05-22T04:22:48.165Z,36.03
2019-05-22T04:25:19.600Z,35.40
2019-05-22T04:27:50.667Z,41.90
2019-05-22T04:30:21.578Z,36.47
2019-05-22T04:32:53.220Z,44.70
2019-05-22T04:35:25.702Z,37.53
2019-05-22T04:37:57.774Z,44.50
2019-05-22T04:40:47.550Z,39.57
2019-05-22T04:43:22.168Z,37.27
2019-05-22T04:45:54.663Z,41.60
2019-05-22T04:48:27.639Z,43.73
2019-05-22T04:50:59.589Z,44.43
2019-05-22T04:53:30.833Z,40.63
2019-05-22T04:56:01.254Z,44.70
2019-05-22T04:58:32.520Z,38.17
2019-05-22T05:01:02.631Z,41.10
2019-05-22T05:03:33.155Z,54.03
2019-05-22T05:06:06.897Z,54.23
2019-05-22T05:08:37.604Z,44.30
2019-05-22T05:11:08.111Z,53.27
2019-05-22T05:13:41.622Z,51.37
2019-05-22T05:16:11.735Z,53.13
2019-05-22T05:18:42.262Z,47.57
2019-05-22T05:21:12.590Z,51.53
2019-05-22T05:23:43.031Z,58.00
2019-05-22T05:26:13.659Z,45.50
2019-05-22T05:28:44.272Z,40.77
2019-05-22T05:31:14.904Z,44.13
2019-05-22T05:33:52.801Z,44.23
2019-05-22T05:36:23.942Z,52.30
2019-05-22T05:38:56.315Z,61.20
2019-05-22T05:41:27.464Z,67.13
2019-05-22T05:43:59.119Z,62.97
2019-05-22T05:46:29.439Z,63.40
2019-05-22T05:49:01.706Z,55.97
2019-05-22T05:51:50.666Z,61.07
2019-05-22T05:54:32.674Z,46.97
2019-05-22T05:57:24.084Z,53.97
2019-05-22T06:03:09.278Z,58.80
2019-05-22T06:05:53.735Z,49.00
2019-05-22T06:08:26.716Z,38.50
2019-05-22T06:11:16.804Z,45.30
2019-05-22T06:13:48.256Z,44.87
2019-05-22T06:16:41.516Z,37.97
2019-05-22T06:19:14.911Z,42.10
2019-05-22T06:21:50.257Z,33.93
2019-05-22T06:24:36.875Z,40.10
2019-05-22T06:27:26.543Z,37.00
2019-05-22T06:30:11.814Z,36.30
2019-05-22T06:33:07.225Z,33.50
2019-05-22T06:35:39.521Z,32.17
2019-05-22T06:38:17.800Z,32.43
2019-05-22T06:40:48.330Z,29.57
2019-05-22T06:43:35.349Z,31.47
2019-05-22T06:46:12.739Z,30.27
2019-05-22T06:48:49.513Z,28.07
2019-05-22T06:51:25.462Z,25.40
2019-05-22T06:57:01.891Z,23.90
2019-05-22T06:59:48.663Z,23.20
2019-05-22T07:02:22.566Z,22.53
2019-05-22T07:04:55.042Z,21.10
2019-05-22T07:07:29.867Z,20.47
2019-05-22T07:10:05.746Z,21.43
2019-05-22T07:12:38.300Z,21.73
2019-05-22T07:15:51.221Z,20.20
2019-05-22T07:18:23.491Z,22.40
2019-05-22T07:20:58.264Z,23.07
2019-05-22T07:23:34.482Z,17.07
2019-05-22T07:26:10.746Z,11.83
2019-05-22T07:28:40.759Z,11.17
2019-05-22T07:31:10.781Z,9.37
2019-05-22T07:33:40.894Z,9.37
2019-05-22T07:36:16.713Z,10.07
2019-05-22T07:38:43.900Z,12.17
2019-05-22T07:41:14.123Z,13.37
2019-05-22T07:43:44.858Z,12.13
2019-05-22T07:46:17.229Z,12.47
2019-05-22T07:48:48.478Z,12.77
2019-05-22T07:51:20.334Z,13.17
2019-05-22T07:53:51.577Z,11.77
2019-05-22T07:56:23.136Z,14.93
2019-05-22T07:58:53.456Z,14.73
2019-05-22T08:01:24.083Z,13.83
2019-05-22T08:03:55.639Z,13.00
2019-05-22T08:06:25.557Z,12.83
2019-05-22T08:08:55.472Z,14.10
2019-05-22T08:11:26.401Z,13.50
2019-05-22T08:13:58.064Z,12.43
2019-05-22T08:16:30.837Z,11.80
2019-05-22T08:19:00.662Z,13.33
2019-05-22T08:21:31.300Z,12.03
2019-05-22T08:24:01.728Z,12.60
2019-05-22T08:26:34.284Z,14.60
2019-05-22T08:29:05.554Z,12.77
2019-05-22T08:31:38.623Z,12.87
2019-05-22T08:34:10.275Z,12.80
2019-05-22T08:36:40.899Z,13.43
2019-05-22T08:39:11.536Z,14.03
2019-05-22T08:41:43.297Z,12.03
2019-05-22T08:44:17.262Z,12.37
2019-05-22T08:46:47.523Z,13.37
2019-05-22T08:49:18.565Z,11.70
2019-05-22T08:51:49.817Z,14.83
2019-05-22T08:54:20.443Z,13.13
2019-05-22T08:56:51.688Z,13.43
2019-05-22T08:59:22.523Z,14.60
2019-05-22T09:01:52.593Z,15.27
2019-05-22T09:04:23.806Z,15.33
2019-05-22T09:06:54.107Z,15.30
2019-05-22T09:09:24.435Z,14.53
2019-05-22T09:11:55.269Z,13.20
2019-05-22T09:14:26.624Z,14.13
2019-05-22T09:16:57.558Z,13.73
2019-05-22T09:19:30.051Z,13.97
2019-05-22T09:22:01.690Z,13.53
2019-05-22T09:24:36.540Z,12.40
2019-05-22T09:27:07.661Z,14.37
2019-05-22T09:29:39.729Z,14.53
2019-05-22T09:32:11.488Z,15.67
2019-05-22T09:34:43.241Z,14.10
2019-05-22T09:37:14.581Z,13.37
2019-05-22T09:39:45.319Z,13.37
2019-05-22T09:42:17.101Z,14.03
2019-05-22T09:44:47.397Z,12.77
2019-05-22T09:47:18.845Z,12.50
2019-05-22T09:49:50.302Z,13.33
2019-05-22T09:52:22.585Z,12.27
2019-05-22T09:54:53.814Z,12.67
2019-05-22T09:57:24.242Z,12.33
2019-05-22T09:59:54.567Z,12.73
2019-05-22T10:02:25.709Z,12.23
2019-05-22T10:04:56.029Z,11.63
2019-05-22T10:07:26.555Z,12.23
2019-05-22T10:09:56.577Z,12.00
2019-05-22T10:12:27.924Z,11.47
2019-05-22T10:15:01.480Z,11.17
2019-05-22T10:17:32.364Z,11.90
2019-05-22T10:20:04.528Z,11.53
2019-05-22T10:22:35.469Z,15.83
2019-05-22T10:25:15.617Z,11.23
2019-05-22T10:27:38.570Z,11.33
2019-05-22T10:30:10.430Z,12.23
2019-05-22T10:32:41.162Z,10.37
2019-05-22T10:35:12.715Z,12.13
2019-05-22T10:37:44.370Z,13.27
2019-05-22T10:40:15.108Z,14.73
2019-05-22T10:42:46.664Z,13.60
2019-05-22T10:45:18.210Z,14.87
2019-05-22T10:47:53.246Z,16.87
2019-05-22T10:50:24.598Z,17.53
2019-05-22T10:52:55.542Z,17.67
2019-05-22T10:55:26.471Z,17.33
2019-05-22T10:57:56.898Z,17.17
2019-05-22T11:00:29.269Z,18.67
2019-05-22T11:03:00.098Z,19.07
2019-05-22T11:05:31.657Z,18.00
2019-05-22T11:08:02.286Z,18.10
2019-05-22T11:10:34.557Z,18.97
2019-05-22T11:13:06.419Z,19.03
2019-05-22T11:15:37.350Z,19.50
2019-05-22T11:18:11.635Z,19.30
2019-05-22T11:20:43.122Z,18.53
2019-05-22T11:23:14.566Z,19.20
2019-05-22T11:25:46.019Z,18.73
2019-05-22T11:28:16.549Z,19.20
2019-05-22T11:30:46.873Z,18.60
2019-05-22T11:33:19.448Z,18.83
2019-05-22T11:35:50.590Z,18.57
2019-05-22T11:38:21.444Z,21.57
2019-05-22T11:40:52.271Z,19.93
2019-05-22T11:43:22.601Z,18.70
2019-05-22T11:45:53.887Z,20.60
2019-05-22T11:48:25.484Z,18.87
2019-05-22T11:50:56.424Z,19.23
2019-05-22T11:53:28.287Z,18.37
2019-05-22T11:55:59.240Z,17.57
2019-05-22T11:58:29.761Z,19.77
2019-05-22T12:01:02.886Z,20.07
2019-05-22T12:03:36.745Z,20.80
2019-05-22T12:06:08.401Z,20.30
2019-05-22T12:08:38.550Z,21.90
2019-05-22T12:11:09.923Z,21.70
2019-05-22T12:13:40.290Z,21.80
2019-05-22T12:16:12.871Z,20.60
2019-05-22T12:18:43.909Z,21.07
2019-05-22T12:21:14.232Z,19.83
2019-05-22T12:23:45.687Z,21.27
2019-05-22T12:26:17.238Z,20.03
2019-05-22T12:28:48.790Z,20.77
2019-05-22T12:31:21.578Z,19.77
2019-05-22T12:33:54.971Z,20.43
2019-05-22T12:36:26.831Z,20.23
2019-05-22T12:39:02.597Z,22.30
2019-05-22T12:41:33.823Z,24.20
2019-05-22T12:44:05.072Z,23.93
2019-05-22T12:46:35.800Z,24.20
2019-05-22T12:49:08.985Z,25.40
2019-05-22T12:51:40.547Z,25.97
2019-05-22T12:54:11.313Z,23.27
2019-05-22T12:56:46.318Z,24.07
2019-05-22T12:59:17.210Z,26.40
2019-05-22T13:01:49.831Z,23.93
2019-05-22T13:04:21.791Z,25.00
2019-05-22T13:06:52.899Z,25.07
2019-05-22T13:09:23.873Z,24.57
2019-05-22T13:11:55.220Z,24.43
2019-05-22T13:14:25.643Z,25.17
2019-05-22T13:16:56.692Z,26.17
2019-05-22T13:19:28.861Z,25.00
2019-05-22T13:22:00.920Z,23.50
2019-05-22T13:24:35.231Z,27.50
2019-05-22T13:27:08.127Z,27.97
2019-05-22T13:29:40.180Z,25.67
2019-05-22T13:32:13.269Z,25.73
2019-05-22T13:34:45.233Z,27.87
2019-05-22T13:37:16.580Z,25.23
2019-05-22T13:39:47.523Z,26.50
2019-05-22T13:42:18.460Z,27.57
2019-05-22T13:44:49.192Z,28.70
2019-05-22T13:47:19.421Z,27.77
2019-05-22T13:49:51.301Z,26.93
2019-05-22T13:52:22.621Z,28.17
2019-05-22T13:54:53.257Z,28.50
2019-05-22T13:57:25.830Z,28.50
2019-05-22T13:59:56.566Z,26.67
2019-05-22T14:02:27.404Z,24.33
2019-05-22T14:04:59.461Z,15.00
2019-05-22T14:07:30.397Z,11.87
2019-05-22T14:10:01.562Z,9.47
2019-05-22T14:12:32.998Z,8.70
2019-05-22T14:15:04.243Z,8.10
2019-05-22T14:17:43.472Z,7.60
2019-05-22T14:20:14.610Z,7.80
2019-05-22T14:22:44.891Z,7.33
2019-05-22T14:25:17.725Z,6.70
2019-05-22T14:27:48.864Z,7.10
2019-05-22T14:30:20.431Z,6.13
2019-05-22T14:32:50.531Z,5.70
2019-05-22T14:35:22.806Z,4.73
2019-05-22T14:37:53.234Z,3.77
2019-05-22T14:40:23.571Z,3.50
2019-05-22T14:42:53.261Z,3.43
2019-05-22T14:45:24.505Z,3.47
2019-05-22T14:47:55.140Z,3.43
2019-05-22T14:50:26.589Z,3.90
2019-05-22T14:52:57.891Z,3.13
2019-05-22T14:55:30.831Z,3.50
2019-05-22T14:58:03.611Z,4.60
2019-05-22T15:00:40.690Z,5.00
2019-05-22T15:03:13.471Z,3.80
2019-05-22T15:05:45.945Z,3.37
2019-05-22T15:08:19.741Z,3.30
2019-05-22T15:10:50.696Z,3.97
2019-05-22T15:13:22.550Z,6.57
2019-05-22T15:16:00.348Z,4.37
2019-05-22T15:18:31.177Z,5.00
2019-05-22T15:21:09.315Z,6.73
2019-05-22T15:23:43.188Z,4.67
2019-05-22T15:26:18.335Z,4.20
2019-05-22T15:28:49.264Z,5.60
2019-05-22T15:31:20.730Z,5.03
2019-05-22T15:33:52.793Z,4.90
2019-05-22T15:36:25.570Z,4.80
2019-05-22T15:39:04.730Z,4.30
2019-05-22T15:41:38.614Z,6.37
2019-05-22T15:44:11.762Z,6.50
2019-05-22T15:46:44.266Z,5.63
2019-05-22T15:49:15.918Z,5.10
2019-05-22T15:51:59.535Z,5.00
2019-05-22T15:54:33.272Z,4.90
2019-05-22T15:57:09.689Z,4.90
2019-05-22T15:59:39.445Z,5.73
2019-05-22T16:02:11.192Z,6.80
2019-05-22T16:04:42.438Z,6.60
2019-05-22T16:07:14.210Z,6.47
2019-05-22T16:10:06.329Z,5.97
2019-05-22T16:15:47.213Z,6.10
2019-05-22T16:18:20.832Z,5.43
2019-05-22T16:20:51.765Z,5.20
2019-05-22T16:23:22.979Z,5.60
2019-05-22T16:25:54.250Z,5.33
2019-05-22T16:45:20.697Z,4.57
2019-05-22T16:47:51.426Z,5.30
2019-05-22T16:50:22.691Z,4.47
2019-05-22T16:52:54.838Z,5.57
2019-05-22T16:55:25.264Z,5.10
2019-05-22T17:01:27.563Z,5.40
2019-05-22T17:04:00.816Z,5.77
2019-05-22T17:06:42.843Z,7.03
2019-05-22T17:09:50.241Z,6.20
2019-05-22T17:12:22.512Z,6.40
2019-05-22T17:21:56.262Z,4.57
2019-05-22T17:24:27.717Z,4.90
2019-05-22T17:33:26.890Z,4.70
2019-05-22T17:35:59.421Z,6.03
2019-05-22T17:38:32.631Z,6.23
2019-05-22T17:41:04.690Z,5.60
2019-05-22T17:43:36.540Z,5.90
2019-05-22T17:46:10.135Z,5.93
2019-05-22T17:49:25.650Z,5.00
2019-05-22T17:55:24.751Z,5.73
2019-05-22T17:58:09.832Z,3.77
2019-05-22T18:00:49.563Z,4.23
2019-05-22T18:03:27.896Z,5.10
2019-05-22T18:06:16.110Z,3.50
2019-05-22T18:08:58.828Z,16.27
2019-05-22T18:11:31.892Z,5.03
2019-05-22T18:36:13.640Z,4.80
2019-05-22T18:39:48.393Z,5.13
2019-05-22T18:42:21.362Z,5.30
2019-05-22T18:44:51.655Z,4.87
2019-05-22T18:47:51.517Z,3.83
2019-05-22T18:50:22.340Z,4.23
2019-05-22T18:52:57.910Z,3.97
2019-05-22T18:55:45.812Z,4.20
2019-05-22T18:58:22.082Z,4.17
2019-05-22T19:01:29.592Z,4.30
2019-05-22T19:04:19.049Z,3.63
2019-05-22T19:06:55.799Z,2.87
2019-05-22T19:09:28.196Z,2.90
2019-05-22T19:12:05.281Z,3.20
2019-05-22T19:14:39.287Z,2.63
2019-05-22T19:17:28.459Z,2.70
2019-05-22T19:20:02.875Z,2.80
2019-05-22T19:22:35.557Z,4.40
2019-05-22T19:25:06.497Z,3.97
2019-05-22T19:27:41.529Z,3.87
2019-05-22T19:30:14.306Z,5.90
2019-05-22T19:32:45.757Z,4.33
2019-05-22T19:35:16.498Z,3.10
2019-05-22T19:37:47.635Z,3.10
2019-05-22T19:40:21.551Z,3.10
2019-05-22T19:43:03.854Z,3.20
2019-05-22T19:45:42.893Z,3.67
2019-05-22T19:48:17.499Z,3.87
2019-05-22T19:50:50.729Z,3.50
2019-05-22T19:53:32.690Z,2.33
2019-05-22T19:56:28.911Z,2.53
2019-05-22T19:59:04.670Z,3.13
2019-05-22T20:01:40.768Z,3.20
2019-05-22T20:04:14.870Z,2.80
2019-05-22T20:06:46.609Z,2.97
2019-05-22T20:09:19.513Z,3.53
2019-05-22T20:11:49.619Z,2.83
2019-05-22T20:14:30.946Z,3.47
2019-05-22T20:17:02.542Z,3.03
2019-05-22T20:19:39.513Z,3.20
2019-05-22T20:22:11.191Z,3.37
2019-05-22T20:24:41.886Z,3.80
2019-05-22T20:27:13.557Z,3.77
2019-05-22T20:29:44.499Z,3.60
2019-05-22T20:32:17.685Z,3.40
2019-05-22T20:34:50.571Z,4.40
2019-05-22T20:37:22.324Z,4.03
2019-05-22T20:39:52.756Z,3.70
2019-05-22T20:42:25.279Z,4.00
2019-05-22T20:44:57.293Z,4.60
2019-05-22T20:47:29.875Z,4.43
2019-05-22T20:50:04.698Z,4.27
2019-05-22T20:53:08.513Z,4.17
2019-05-22T20:56:06.610Z,5.20
2019-05-22T20:58:44.584Z,4.73
2019-05-22T21:01:15.637Z,4.87
2019-05-22T21:03:46.567Z,4.50
2019-05-22T21:06:19.654Z,5.40
2019-05-22T21:08:51.575Z,4.53
2019-05-22T21:11:28.287Z,4.43
2019-05-22T21:14:01.708Z,5.07
2019-05-22T21:16:33.670Z,4.47
2019-05-22T21:19:37.771Z,4.80
2019-05-22T21:22:26.525Z,5.63
2019-05-22T21:25:10.363Z,4.77
2019-05-22T21:27:43.767Z,4.47
2019-05-22T21:30:23.312Z,5.63
2019-05-22T21:33:06.826Z,5.77
2019-05-22T21:35:40.740Z,6.00
2019-05-22T21:38:12.506Z,5.03
2019-05-22T21:40:45.708Z,5.90
2019-05-22T21:43:17.553Z,5.30
2019-05-22T21:45:52.274Z,6.47
2019-05-22T21:54:59.085Z,7.33
2019-05-22T21:57:29.210Z,7.13
2019-05-22T22:00:08.168Z,6.80
2019-05-22T22:02:52.599Z,7.07
2019-05-22T22:05:28.859Z,7.17
2019-05-22T22:08:08.795Z,9.13
2019-05-22T22:10:39.683Z,7.30
2019-05-22T22:13:19.902Z,8.80
2019-05-22T22:15:52.875Z,9.40
2019-05-22T22:18:24.792Z,7.37
2019-05-22T22:21:00.710Z,7.87
2019-05-22T22:23:34.727Z,9.93
2019-05-22T22:26:24.018Z,7.00
2019-05-22T22:28:40.609Z,9.50
2019-05-22T22:31:13.249Z,9.53
2019-05-22T22:33:46.050Z,9.50
2019-05-22T22:36:41.772Z,8.73
2019-05-22T22:39:25.615Z,8.67
2019-05-22T22:41:59.409Z,7.97
2019-05-22T22:44:31.581Z,7.60
2019-05-22T22:47:12.763Z,7.20
2019-05-22T22:49:46.853Z,7.53
2019-05-22T22:52:20.272Z,6.63
2019-05-22T22:54:57.231Z,8.00
2019-05-22T22:57:47.643Z,8.50
2019-05-22T23:00:26.677Z,7.60
2019-05-22T23:02:58.312Z,6.90
2019-05-22T23:05:29.141Z,8.53
2019-05-22T23:08:00.900Z,7.20
2019-05-22T23:10:33.293Z,6.90
2019-05-22T23:13:12.900Z,8.47
2019-05-22T23:15:43.671Z,6.10
2019-05-22T23:18:17.680Z,5.83
2019-05-22T23:21:02.723Z,6.73
2019-05-22T23:23:29.473Z,6.57
2019-05-22T23:26:06.160Z,7.30
2019-05-22T23:28:40.566Z,7.67
2019-05-22T23:31:17.570Z,7.67
2019-05-22T23:33:53.709Z,6.80
2019-05-22T23:36:24.661Z,6.03
2019-05-22T23:42:15.580Z,6.50
2019-05-22T23:44:48.244Z,7.13
2019-05-22T23:47:19.594Z,6.97
2019-05-22T23:49:54.942Z,6.53
2019-05-22T23:52:29.253Z,5.20
2019-05-22T23:55:15.452Z,5.20
2019-05-22T23:57:47.507Z,5.50
